sensor_id;sensor_type;location;lat;lon;timestamp;P1;durP1;ratioP1;P2;durP2;ratioP2
19595;SDS011;9945;46.010;8.946;2022-10-15T00:01:11;12.63;;;11.05;;
19595;SDS011;9945;46.010;8.946;2022-10-15T00:03:41;12.90;;;11.38;;
19595;SDS011;9945;46.010;8.946;2022-10-15T00:06:11;13.32;;;11.52;;
19595;SDS011;9945;46.010;8.946;2022-10-15T00:08:39;20.05;;;11.13;;
19595;SDS011;9945;46.010;8.946;2022-10-15T00:11:08;12.68;;;10.85;;
19595;SDS011;9945;46.010;8.946;2022-10-15T00:13:37;16.05;;;11.27;;
19595;SDS011;9945;46.010;8.946;2022-10-15T00:16:05;12.68;;;11.48;;
19595;SDS011;9945;46.010;8.946;2022-10-15T00:18:34;15.70;;;12.00;;
19595;SDS011;9945;46.010;8.946;2022-10-15T00:21:04;14.77;;;11.65;;
19595;SDS011;9945;46.010;8.946;2022-10-15T00:23:33;14.02;;;10.57;;
19595;SDS011;9945;46.010;8.946;2022-10-15T00:26:04;13.93;;;11.05;;
19595;SDS011;9945;46.010;8.946;2022-10-15T00:28:33;12.93;;;11.63;;
19595;SDS011;9945;46.010;8.946;2022-10-15T00:31:02;12.85;;;11.57;;
19595;SDS011;9945;46.010;8.946;2022-10-15T00:33:30;16.50;;;12.18;;
19595;SDS011;9945;46.010;8.946;2022-10-15T00:35:58;12.85;;;10.43;;
19595;SDS011;9945;46.010;8.946;2022-10-15T00:38:26;11.50;;;10.40;;
19595;SDS011;9945;46.010;8.946;2022-10-15T00:40:54;13.10;;;10.35;;
19595;SDS011;9945;46.010;8.946;2022-10-15T00:43:41;12.13;;;10.43;;
19595;SDS011;9945;46.010;8.946;2022-10-15T00:46:15;15.30;;;9.63;;
19595;SDS011;9945;46.010;8.946;2022-10-15T00:48:49;13.55;;;9.77;;
19595;SDS011;9945;46.010;8.946;2022-10-15T00:51:18;14.80;;;9.35;;
19595;SDS011;9945;46.010;8.946;2022-10-15T00:53:47;9.10;;;8.20;;
19595;SDS011;9945;46.010;8.946;2022-10-15T00:56:18;9.45;;;8.63;;
19595;SDS011;9945;46.010;8.946;2022-10-15T00:58:47;12.13;;;8.75;;
19595;SDS011;9945;46.010;8.946;2022-10-15T01:01:15;11.90;;;8.73;;
19595;SDS011;9945;46.010;8.946;2022-10-15T01:03:42;16.45;;;9.60;;
19595;SDS011;9945;46.010;8.946;2022-10-15T01:06:09;10.50;;;9.45;;
19595;SDS011;9945;46.010;8.946;2022-10-15T01:08:36;10.55;;;8.75;;
19595;SDS011;9945;46.010;8.946;2022-10-15T01:11:07;10.23;;;9.18;;
19595;SDS011;9945;46.010;8.946;2022-10-15T01:13:45;12.38;;;9.60;;
19595;SDS011;9945;46.010;8.946;2022-10-15T01:16:20;10.98;;;9.38;;
19595;SDS011;9945;46.010;8.946;2022-10-15T01:18:55;10.43;;;8.32;;
19595;SDS011;9945;46.010;8.946;2022-10-15T01:21:28;14.43;;;9.15;;
19595;SDS011;9945;46.010;8.946;2022-10-15T01:32:59;10.13;;;8.48;;
19595;SDS011;9945;46.010;8.946;2022-10-15T01:35:33;9.65;;;8.65;;
19595;SDS011;9945;46.010;8.946;2022-10-15T01:38:12;11.25;;;8.35;;
19595;SDS011;9945;46.010;8.946;2022-10-15T01:40:53;11.05;;;7.50;;
19595;SDS011;9945;46.010;8.946;2022-10-15T01:43:25;9.05;;;7.65;;
19595;SDS011;9945;46.010;8.946;2022-10-15T01:45:57;10.48;;;7.13;;
19595;SDS011;9945;46.010;8.946;2022-10-15T01:48:28;14.13;;;9.15;;
19595;SDS011;9945;46.010;8.946;2022-10-15T01:50:58;11.60;;;9.52;;
19595;SDS011;9945;46.010;8.946;2022-10-15T01:53:27;12.32;;;9.00;;
19595;SDS011;9945;46.010;8.946;2022-10-15T01:55:56;15.77;;;9.10;;
19595;SDS011;9945;46.010;8.946;2022-10-15T01:58:26;14.75;;;8.48;;
19595;SDS011;9945;46.010;8.946;2022-10-15T02:00:56;11.50;;;8.55;;
19595;SDS011;9945;46.010;8.946;2022-10-15T02:03:24;10.30;;;8.68;;
19595;SDS011;9945;46.010;8.946;2022-10-15T02:05:52;9.40;;;8.60;;
19595;SDS011;9945;46.010;8.946;2022-10-15T02:08:27;14.25;;;9.65;;
19595;SDS011;9945;46.010;8.946;2022-10-15T02:11:06;8.68;;;7.97;;
19595;SDS011;9945;46.010;8.946;2022-10-15T02:13:40;10.30;;;8.63;;
19595;SDS011;9945;46.010;8.946;2022-10-15T02:16:17;10.95;;;8.82;;
19595;SDS011;9945;46.010;8.946;2022-10-15T02:18:50;10.50;;;8.82;;
19595;SDS011;9945;46.010;8.946;2022-10-15T02:21:25;9.57;;;8.77;;
19595;SDS011;9945;46.010;8.946;2022-10-15T02:24:01;13.48;;;9.98;;
19595;SDS011;9945;46.010;8.946;2022-10-15T02:26:35;10.38;;;9.38;;
19595;SDS011;9945;46.010;8.946;2022-10-15T02:29:04;11.00;;;9.90;;
19595;SDS011;9945;46.010;8.946;2022-10-15T02:31:37;10.45;;;9.45;;
19595;SDS011;9945;46.010;8.946;2022-10-15T02:34:07;10.77;;;9.27;;
19595;SDS011;9945;46.010;8.946;2022-10-15T02:36:36;10.20;;;8.27;;
19595;SDS011;9945;46.010;8.946;2022-10-15T02:39:06;9.40;;;8.38;;
19595;SDS011;9945;46.010;8.946;2022-10-15T02:41:36;15.27;;;8.95;;
19595;SDS011;9945;46.010;8.946;2022-10-15T02:44:04;9.27;;;8.40;;
19595;SDS011;9945;46.010;8.946;2022-10-15T02:46:31;10.48;;;9.38;;
19595;SDS011;9945;46.010;8.946;2022-10-15T02:49:00;12.57;;;9.40;;
19595;SDS011;9945;46.010;8.946;2022-10-15T02:51:30;11.52;;;9.85;;
19595;SDS011;9945;46.010;8.946;2022-10-15T02:53:57;10.23;;;9.23;;
19595;SDS011;9945;46.010;8.946;2022-10-15T02:56:24;10.35;;;9.30;;
19595;SDS011;9945;46.010;8.946;2022-10-15T02:58:51;9.70;;;8.45;;
19595;SDS011;9945;46.010;8.946;2022-10-15T03:01:18;9.35;;;8.40;;
19595;SDS011;9945;46.010;8.946;2022-10-15T03:03:45;13.40;;;9.77;;
19595;SDS011;9945;46.010;8.946;2022-10-15T03:06:13;14.55;;;10.18;;
19595;SDS011;9945;46.010;8.946;2022-10-15T03:08:40;11.43;;;10.15;;
19595;SDS011;9945;46.010;8.946;2022-10-15T03:11:08;12.15;;;10.30;;
19595;SDS011;9945;46.010;8.946;2022-10-15T03:13:35;12.00;;;10.13;;
19595;SDS011;9945;46.010;8.946;2022-10-15T03:16:03;11.68;;;9.68;;
19595;SDS011;9945;46.010;8.946;2022-10-15T03:18:31;11.82;;;9.82;;
19595;SDS011;9945;46.010;8.946;2022-10-15T03:20:58;13.02;;;9.60;;
19595;SDS011;9945;46.010;8.946;2022-10-15T03:23:27;10.68;;;9.57;;
19595;SDS011;9945;46.010;8.946;2022-10-15T03:25:54;9.82;;;8.57;;
19595;SDS011;9945;46.010;8.946;2022-10-15T03:28:21;9.07;;;8.18;;
19595;SDS011;9945;46.010;8.946;2022-10-15T03:30:48;9.90;;;8.90;;
19595;SDS011;9945;46.010;8.946;2022-10-15T03:33:15;13.88;;;8.23;;
19595;SDS011;9945;46.010;8.946;2022-10-15T03:35:42;11.25;;;8.65;;
19595;SDS011;9945;46.010;8.946;2022-10-15T03:38:09;13.15;;;8.70;;
19595;SDS011;9945;46.010;8.946;2022-10-15T03:40:37;13.30;;;7.88;;
19595;SDS011;9945;46.010;8.946;2022-10-15T03:43:04;10.82;;;7.97;;
19595;SDS011;9945;46.010;8.946;2022-10-15T03:45:31;9.50;;;8.00;;
19595;SDS011;9945;46.010;8.946;2022-10-15T03:47:58;8.20;;;7.40;;
19595;SDS011;9945;46.010;8.946;2022-10-15T03:50:25;9.13;;;7.65;;
19595;SDS011;9945;46.010;8.946;2022-10-15T03:52:52;12.98;;;7.25;;
19595;SDS011;9945;46.010;8.946;2022-10-15T03:55:19;8.23;;;7.50;;
19595;SDS011;9945;46.010;8.946;2022-10-15T03:57:47;7.88;;;7.10;;
19595;SDS011;9945;46.010;8.946;2022-10-15T04:00:14;8.65;;;6.95;;
19595;SDS011;9945;46.010;8.946;2022-10-15T04:02:42;7.72;;;7.15;;
19595;SDS011;9945;46.010;8.946;2022-10-15T04:05:09;11.25;;;7.03;;
19595;SDS011;9945;46.010;8.946;2022-10-15T04:07:36;12.45;;;7.40;;
19595;SDS011;9945;46.010;8.946;2022-10-15T04:10:02;7.97;;;7.07;;
19595;SDS011;9945;46.010;8.946;2022-10-15T04:12:30;7.85;;;7.15;;
19595;SDS011;9945;46.010;8.946;2022-10-15T04:14:58;8.45;;;7.60;;
19595;SDS011;9945;46.010;8.946;2022-10-15T04:17:25;13.80;;;7.68;;
19595;SDS011;9945;46.010;8.946;2022-10-15T04:19:51;9.27;;;6.80;;
19595;SDS011;9945;46.010;8.946;2022-10-15T04:22:18;8.60;;;7.03;;
19595;SDS011;9945;46.010;8.946;2022-10-15T04:24:45;8.18;;;7.38;;
19595;SDS011;9945;46.010;8.946;2022-10-15T04:27:12;7.90;;;7.20;;
19595;SDS011;9945;46.010;8.946;2022-10-15T04:29:39;11.82;;;7.72;;
19595;SDS011;9945;46.010;8.946;2022-10-15T04:32:07;8.05;;;7.25;;
19595;SDS011;9945;46.010;8.946;2022-10-15T04:34:38;11.07;;;7.60;;
19595;SDS011;9945;46.010;8.946;2022-10-15T04:37:05;7.97;;;7.00;;
19595;SDS011;9945;46.010;8.946;2022-10-15T04:39:31;9.73;;;6.55;;
19595;SDS011;9945;46.010;8.946;2022-10-15T04:41:58;8.02;;;7.10;;
19595;SDS011;9945;46.010;8.946;2022-10-15T04:44:25;8.85;;;6.45;;
19595;SDS011;9945;46.010;8.946;2022-10-15T04:46:52;8.23;;;7.45;;
19595;SDS011;9945;46.010;8.946;2022-10-15T04:49:20;8.80;;;7.88;;
19595;SDS011;9945;46.010;8.946;2022-10-15T04:51:47;8.98;;;7.85;;
19595;SDS011;9945;46.010;8.946;2022-10-15T04:54:14;8.70;;;7.80;;
19595;SDS011;9945;46.010;8.946;2022-10-15T04:56:41;8.68;;;7.28;;
19595;SDS011;9945;46.010;8.946;2022-10-15T04:59:08;11.57;;;7.78;;
19595;SDS011;9945;46.010;8.946;2022-10-15T05:01:35;11.35;;;7.43;;
19595;SDS011;9945;46.010;8.946;2022-10-15T05:04:02;12.18;;;7.82;;
19595;SDS011;9945;46.010;8.946;2022-10-15T05:06:31;10.10;;;7.90;;
19595;SDS011;9945;46.010;8.946;2022-10-15T05:08:59;11.80;;;8.23;;
19595;SDS011;9945;46.010;8.946;2022-10-15T05:11:27;12.32;;;8.20;;
19595;SDS011;9945;46.010;8.946;2022-10-15T05:13:54;16.88;;;8.60;;
19595;SDS011;9945;46.010;8.946;2022-10-15T05:16:22;12.40;;;9.18;;
19595;SDS011;9945;46.010;8.946;2022-10-15T05:18:51;11.07;;;8.63;;
19595;SDS011;9945;46.010;8.946;2022-10-15T05:21:21;54.97;;;9.73;;
19595;SDS011;9945;46.010;8.946;2022-10-15T05:23:50;11.85;;;8.70;;
19595;SDS011;9945;46.010;8.946;2022-10-15T05:26:17;11.77;;;8.75;;
19595;SDS011;9945;46.010;8.946;2022-10-15T05:28:45;12.63;;;8.82;;
19595;SDS011;9945;46.010;8.946;2022-10-15T05:31:13;11.40;;;9.38;;
19595;SDS011;9945;46.010;8.946;2022-10-15T05:33:41;10.68;;;8.70;;
19595;SDS011;9945;46.010;8.946;2022-10-15T05:36:09;9.18;;;8.32;;
19595;SDS011;9945;46.010;8.946;2022-10-15T05:38:37;12.88;;;8.30;;
19595;SDS011;9945;46.010;8.946;2022-10-15T05:41:05;10.20;;;7.63;;
19595;SDS011;9945;46.010;8.946;2022-10-15T05:43:32;9.60;;;8.63;;
19595;SDS011;9945;46.010;8.946;2022-10-15T05:45:59;11.32;;;8.60;;
19595;SDS011;9945;46.010;8.946;2022-10-15T05:48:26;9.45;;;8.75;;
19595;SDS011;9945;46.010;8.946;2022-10-15T05:50:59;15.90;;;10.20;;
19595;SDS011;9945;46.010;8.946;2022-10-15T05:53:26;11.35;;;9.25;;
19595;SDS011;9945;46.010;8.946;2022-10-15T05:55:53;9.98;;;8.90;;
19595;SDS011;9945;46.010;8.946;2022-10-15T05:58:22;8.32;;;7.57;;
19595;SDS011;9945;46.010;8.946;2022-10-15T06:00:52;8.90;;;8.10;;
19595;SDS011;9945;46.010;8.946;2022-10-15T06:03:19;8.20;;;7.40;;
19595;SDS011;9945;46.010;8.946;2022-10-15T06:05:46;9.80;;;7.70;;
19595;SDS011;9945;46.010;8.946;2022-10-15T06:08:13;11.50;;;8.98;;
19595;SDS011;9945;46.010;8.946;2022-10-15T06:10:40;8.95;;;8.15;;
19595;SDS011;9945;46.010;8.946;2022-10-15T06:13:07;11.68;;;8.57;;
19595;SDS011;9945;46.010;8.946;2022-10-15T06:15:38;13.18;;;8.57;;
19595;SDS011;9945;46.010;8.946;2022-10-15T06:18:06;10.15;;;8.13;;
19595;SDS011;9945;46.010;8.946;2022-10-15T06:20:33;9.00;;;7.68;;
19595;SDS011;9945;46.010;8.946;2022-10-15T06:23:01;10.23;;;8.05;;
19595;SDS011;9945;46.010;8.946;2022-10-15T06:25:30;9.18;;;8.27;;
19595;SDS011;9945;46.010;8.946;2022-10-15T06:27:59;10.27;;;9.27;;
19595;SDS011;9945;46.010;8.946;2022-10-15T06:30:26;15.30;;;9.23;;
19595;SDS011;9945;46.010;8.946;2022-10-15T06:32:56;10.68;;;9.05;;
19595;SDS011;9945;46.010;8.946;2022-10-15T06:35:23;9.02;;;8.13;;
19595;SDS011;9945;46.010;8.946;2022-10-15T06:37:54;11.63;;;8.73;;
19595;SDS011;9945;46.010;8.946;2022-10-15T06:40:21;9.35;;;7.85;;
19595;SDS011;9945;46.010;8.946;2022-10-15T06:42:48;9.40;;;8.40;;
19595;SDS011;9945;46.010;8.946;2022-10-15T06:45:15;13.52;;;8.02;;
19595;SDS011;9945;46.010;8.946;2022-10-15T06:47:42;10.23;;;9.07;;
19595;SDS011;9945;46.010;8.946;2022-10-15T06:50:10;10.77;;;7.97;;
19595;SDS011;9945;46.010;8.946;2022-10-15T06:52:37;12.73;;;9.52;;
19595;SDS011;9945;46.010;8.946;2022-10-15T06:55:05;11.20;;;8.35;;
19595;SDS011;9945;46.010;8.946;2022-10-15T06:57:32;9.90;;;8.20;;
19595;SDS011;9945;46.010;8.946;2022-10-15T06:59:59;12.27;;;8.40;;
19595;SDS011;9945;46.010;8.946;2022-10-15T07:02:26;11.80;;;7.60;;
19595;SDS011;9945;46.010;8.946;2022-10-15T07:04:53;11.48;;;7.63;;
19595;SDS011;9945;46.010;8.946;2022-10-15T07:07:22;10.15;;;7.45;;
19595;SDS011;9945;46.010;8.946;2022-10-15T07:09:49;8.35;;;7.20;;
19595;SDS011;9945;46.010;8.946;2022-10-15T07:12:17;12.15;;;7.90;;
19595;SDS011;9945;46.010;8.946;2022-10-15T07:14:46;10.48;;;7.90;;
19595;SDS011;9945;46.010;8.946;2022-10-15T07:17:13;11.10;;;9.05;;
19595;SDS011;9945;46.010;8.946;2022-10-15T07:19:41;13.20;;;9.77;;
19595;SDS011;9945;46.010;8.946;2022-10-15T07:22:09;10.77;;;9.68;;
19595;SDS011;9945;46.010;8.946;2022-10-15T07:24:37;10.75;;;9.75;;
19595;SDS011;9945;46.010;8.946;2022-10-15T07:27:04;13.43;;;10.23;;
19595;SDS011;9945;46.010;8.946;2022-10-15T07:29:31;11.40;;;10.00;;
19595;SDS011;9945;46.010;8.946;2022-10-15T07:31:58;11.13;;;10.02;;
19595;SDS011;9945;46.010;8.946;2022-10-15T07:34:25;11.57;;;10.38;;
19595;SDS011;9945;46.010;8.946;2022-10-15T07:36:52;15.43;;;10.07;;
19595;SDS011;9945;46.010;8.946;2022-10-15T07:39:19;12.48;;;8.50;;
19595;SDS011;9945;46.010;8.946;2022-10-15T07:41:48;9.05;;;8.35;;
19595;SDS011;9945;46.010;8.946;2022-10-15T07:44:15;10.88;;;8.38;;
19595;SDS011;9945;46.010;8.946;2022-10-15T07:46:42;9.20;;;8.27;;
19595;SDS011;9945;46.010;8.946;2022-10-15T07:49:09;11.32;;;8.68;;
19595;SDS011;9945;46.010;8.946;2022-10-15T07:51:36;12.07;;;8.82;;
19595;SDS011;9945;46.010;8.946;2022-10-15T07:54:03;10.00;;;8.32;;
19595;SDS011;9945;46.010;8.946;2022-10-15T07:56:30;12.55;;;8.75;;
19595;SDS011;9945;46.010;8.946;2022-10-15T07:58:59;16.67;;;9.00;;
19595;SDS011;9945;46.010;8.946;2022-10-15T08:01:26;8.98;;;8.23;;
19595;SDS011;9945;46.010;8.946;2022-10-15T08:03:52;11.13;;;9.10;;
19595;SDS011;9945;46.010;8.946;2022-10-15T08:06:19;12.13;;;9.43;;
19595;SDS011;9945;46.010;8.946;2022-10-15T08:08:46;9.55;;;8.75;;
19595;SDS011;9945;46.010;8.946;2022-10-15T08:11:14;19.17;;;9.07;;
19595;SDS011;9945;46.010;8.946;2022-10-15T08:13:42;9.88;;;8.80;;
19595;SDS011;9945;46.010;8.946;2022-10-15T08:16:13;9.98;;;9.20;;
19595;SDS011;9945;46.010;8.946;2022-10-15T08:18:43;11.02;;;9.45;;
19595;SDS011;9945;46.010;8.946;2022-10-15T08:21:10;15.07;;;12.60;;
19595;SDS011;9945;46.010;8.946;2022-10-15T08:23:37;14.73;;;12.07;;
19595;SDS011;9945;46.010;8.946;2022-10-15T08:26:04;13.48;;;12.18;;
19595;SDS011;9945;46.010;8.946;2022-10-15T08:28:32;14.18;;;12.65;;
19595;SDS011;9945;46.010;8.946;2022-10-15T08:31:00;15.32;;;13.73;;
19595;SDS011;9945;46.010;8.946;2022-10-15T08:33:30;17.70;;;14.30;;
19595;SDS011;9945;46.010;8.946;2022-10-15T08:35:57;17.08;;;15.27;;
19595;SDS011;9945;46.010;8.946;2022-10-15T08:38:24;18.13;;;13.70;;
19595;SDS011;9945;46.010;8.946;2022-10-15T08:40:51;17.38;;;15.55;;
19595;SDS011;9945;46.010;8.946;2022-10-15T08:43:22;24.13;;;13.98;;
19595;SDS011;9945;46.010;8.946;2022-10-15T08:45:56;20.55;;;13.25;;
19595;SDS011;9945;46.010;8.946;2022-10-15T08:48:29;14.55;;;12.98;;
19595;SDS011;9945;46.010;8.946;2022-10-15T08:51:00;12.80;;;11.40;;
19595;SDS011;9945;46.010;8.946;2022-10-15T08:53:32;13.75;;;12.32;;
19595;SDS011;9945;46.010;8.946;2022-10-15T08:56:07;12.60;;;11.40;;
19595;SDS011;9945;46.010;8.946;2022-10-15T08:58:41;13.00;;;11.68;;
19595;SDS011;9945;46.010;8.946;2022-10-15T09:01:13;15.15;;;13.68;;
19595;SDS011;9945;46.010;8.946;2022-10-15T09:03:49;18.40;;;14.00;;
19595;SDS011;9945;46.010;8.946;2022-10-15T09:06:22;15.20;;;13.75;;
19595;SDS011;9945;46.010;8.946;2022-10-15T09:08:54;17.30;;;13.70;;
19595;SDS011;9945;46.010;8.946;2022-10-15T09:11:35;15.27;;;13.15;;
19595;SDS011;9945;46.010;8.946;2022-10-15T09:14:12;21.95;;;13.77;;
19595;SDS011;9945;46.010;8.946;2022-10-15T09:16:42;17.02;;;14.75;;
19595;SDS011;9945;46.010;8.946;2022-10-15T09:19:14;18.45;;;14.55;;
19595;SDS011;9945;46.010;8.946;2022-10-15T09:21:43;17.23;;;13.98;;
19595;SDS011;9945;46.010;8.946;2022-10-15T09:24:12;15.02;;;13.52;;
19595;SDS011;9945;46.010;8.946;2022-10-15T09:26:47;16.15;;;13.95;;
19595;SDS011;9945;46.010;8.946;2022-10-15T09:29:21;16.25;;;14.25;;
19595;SDS011;9945;46.010;8.946;2022-10-15T09:31:57;17.55;;;15.60;;
19595;SDS011;9945;46.010;8.946;2022-10-15T09:34:34;17.08;;;14.93;;
19595;SDS011;9945;46.010;8.946;2022-10-15T09:37:08;17.23;;;14.85;;
19595;SDS011;9945;46.010;8.946;2022-10-15T09:39:46;14.98;;;13.10;;
19595;SDS011;9945;46.010;8.946;2022-10-15T09:42:25;16.48;;;13.63;;
19595;SDS011;9945;46.010;8.946;2022-10-15T09:44:56;15.70;;;13.35;;
19595;SDS011;9945;46.010;8.946;2022-10-15T09:47:26;14.13;;;13.00;;
19595;SDS011;9945;46.010;8.946;2022-10-15T09:49:55;15.23;;;13.73;;
19595;SDS011;9945;46.010;8.946;2022-10-15T09:52:24;16.17;;;13.10;;
19595;SDS011;9945;46.010;8.946;2022-10-15T09:55:11;16.08;;;13.25;;
19595;SDS011;9945;46.010;8.946;2022-10-15T09:57:50;15.05;;;13.57;;
19595;SDS011;9945;46.010;8.946;2022-10-15T10:00:20;16.58;;;14.88;;
19595;SDS011;9945;46.010;8.946;2022-10-15T10:02:58;18.23;;;14.55;;
19595;SDS011;9945;46.010;8.946;2022-10-15T10:05:33;17.80;;;15.43;;
19595;SDS011;9945;46.010;8.946;2022-10-15T10:08:06;18.88;;;15.18;;
19595;SDS011;9945;46.010;8.946;2022-10-15T10:10:34;17.10;;;15.38;;
19595;SDS011;9945;46.010;8.946;2022-10-15T10:13:03;17.52;;;15.70;;
19595;SDS011;9945;46.010;8.946;2022-10-15T10:15:34;19.67;;;17.23;;
19595;SDS011;9945;46.010;8.946;2022-10-15T10:18:08;22.52;;;18.75;;
19595;SDS011;9945;46.010;8.946;2022-10-15T10:20:52;24.35;;;20.63;;
19595;SDS011;9945;46.010;8.946;2022-10-15T10:23:23;20.30;;;16.85;;
19595;SDS011;9945;46.010;8.946;2022-10-15T10:25:55;16.70;;;14.38;;
19595;SDS011;9945;46.010;8.946;2022-10-15T10:28:26;19.05;;;15.90;;
19595;SDS011;9945;46.010;8.946;2022-10-15T10:31:04;15.57;;;12.63;;
19595;SDS011;9945;46.010;8.946;2022-10-15T10:33:34;19.27;;;14.85;;
19595;SDS011;9945;46.010;8.946;2022-10-15T10:36:17;14.18;;;11.88;;
19595;SDS011;9945;46.010;8.946;2022-10-15T10:38:53;18.67;;;14.25;;
19595;SDS011;9945;46.010;8.946;2022-10-15T10:41:23;20.60;;;14.95;;
19595;SDS011;9945;46.010;8.946;2022-10-15T10:44:18;20.27;;;15.93;;
19595;SDS011;9945;46.010;8.946;2022-10-15T10:46:59;17.35;;;13.60;;
19595;SDS011;9945;46.010;8.946;2022-10-15T10:49:30;15.70;;;14.25;;
19595;SDS011;9945;46.010;8.946;2022-10-15T10:51:59;17.27;;;15.75;;
19595;SDS011;9945;46.010;8.946;2022-10-15T10:54:26;16.52;;;14.63;;
19595;SDS011;9945;46.010;8.946;2022-10-15T10:56:55;15.88;;;14.25;;
19595;SDS011;9945;46.010;8.946;2022-10-15T10:59:24;18.00;;;15.25;;
19595;SDS011;9945;46.010;8.946;2022-10-15T11:01:56;21.02;;;16.45;;
19595;SDS011;9945;46.010;8.946;2022-10-15T11:04:23;21.55;;;19.15;;
19595;SDS011;9945;46.010;8.946;2022-10-15T11:06:55;22.83;;;20.33;;
19595;SDS011;9945;46.010;8.946;2022-10-15T11:09:37;21.05;;;16.77;;
19595;SDS011;9945;46.010;8.946;2022-10-15T11:15:09;20.23;;;17.20;;
19595;SDS011;9945;46.010;8.946;2022-10-15T11:17:47;20.90;;;16.85;;
19595;SDS011;9945;46.010;8.946;2022-10-15T11:20:18;18.70;;;15.98;;
19595;SDS011;9945;46.010;8.946;2022-10-15T11:22:55;16.52;;;14.65;;
19595;SDS011;9945;46.010;8.946;2022-10-15T11:25:41;18.85;;;14.50;;
19595;SDS011;9945;46.010;8.946;2022-10-15T11:28:22;17.42;;;15.10;;
19595;SDS011;9945;46.010;8.946;2022-10-15T11:31:02;25.52;;;17.30;;
19595;SDS011;9945;46.010;8.946;2022-10-15T11:33:43;17.48;;;15.48;;
19595;SDS011;9945;46.010;8.946;2022-10-15T11:36:27;21.55;;;15.10;;
19595;SDS011;9945;46.010;8.946;2022-10-15T11:39:14;17.63;;;14.77;;
19595;SDS011;9945;46.010;8.946;2022-10-15T11:41:56;19.70;;;14.38;;
19595;SDS011;9945;46.010;8.946;2022-10-15T11:44:34;17.48;;;15.80;;
19595;SDS011;9945;46.010;8.946;2022-10-15T11:47:18;24.38;;;19.40;;
19595;SDS011;9945;46.010;8.946;2022-10-15T11:50:00;20.85;;;18.25;;
19595;SDS011;9945;46.010;8.946;2022-10-15T11:52:43;15.50;;;13.88;;
19595;SDS011;9945;46.010;8.946;2022-10-15T11:55:21;20.52;;;18.27;;
19595;SDS011;9945;46.010;8.946;2022-10-15T11:57:55;23.63;;;20.92;;
19595;SDS011;9945;46.010;8.946;2022-10-15T12:00:29;20.88;;;18.20;;
19595;SDS011;9945;46.010;8.946;2022-10-15T12:03:01;22.15;;;19.83;;
19595;SDS011;9945;46.010;8.946;2022-10-15T12:05:34;20.17;;;17.92;;
19595;SDS011;9945;46.010;8.946;2022-10-15T12:08:04;23.63;;;19.95;;
19595;SDS011;9945;46.010;8.946;2022-10-15T12:10:43;23.25;;;19.33;;
19595;SDS011;9945;46.010;8.946;2022-10-15T12:13:21;21.63;;;18.75;;
19595;SDS011;9945;46.010;8.946;2022-10-15T12:15:59;19.40;;;17.10;;
19595;SDS011;9945;46.010;8.946;2022-10-15T12:18:37;18.90;;;17.00;;
19595;SDS011;9945;46.010;8.946;2022-10-15T12:24:00;21.20;;;19.10;;
19595;SDS011;9945;46.010;8.946;2022-10-15T12:26:30;24.75;;;18.20;;
19595;SDS011;9945;46.010;8.946;2022-10-15T12:29:00;23.38;;;19.50;;
19595;SDS011;9945;46.010;8.946;2022-10-15T12:34:23;19.05;;;17.13;;
19595;SDS011;9945;46.010;8.946;2022-10-15T12:37:00;20.13;;;14.32;;
19595;SDS011;9945;46.010;8.946;2022-10-15T12:39:29;20.23;;;14.52;;
19595;SDS011;9945;46.010;8.946;2022-10-15T12:41:58;20.20;;;15.73;;
19595;SDS011;9945;46.010;8.946;2022-10-15T12:44:26;18.95;;;15.77;;
19595;SDS011;9945;46.010;8.946;2022-10-15T12:46:55;26.00;;;15.77;;
19595;SDS011;9945;46.010;8.946;2022-10-15T12:52:50;18.73;;;16.15;;
19595;SDS011;9945;46.010;8.946;2022-10-15T12:55:24;18.30;;;15.73;;
19595;SDS011;9945;46.010;8.946;2022-10-15T12:57:55;19.65;;;16.77;;
19595;SDS011;9945;46.010;8.946;2022-10-15T13:00:28;19.73;;;15.95;;
19595;SDS011;9945;46.010;8.946;2022-10-15T13:06:12;19.58;;;17.52;;
19595;SDS011;9945;46.010;8.946;2022-10-15T13:08:48;19.23;;;16.40;;
19595;SDS011;9945;46.010;8.946;2022-10-15T13:11:18;24.88;;;18.05;;
19595;SDS011;9945;46.010;8.946;2022-10-15T13:13:49;21.55;;;18.35;;
19595;SDS011;9945;46.010;8.946;2022-10-15T13:16:18;22.83;;;20.38;;
19595;SDS011;9945;46.010;8.946;2022-10-15T13:18:48;20.38;;;17.52;;
19595;SDS011;9945;46.010;8.946;2022-10-15T13:21:17;18.27;;;16.02;;
19595;SDS011;9945;46.010;8.946;2022-10-15T13:23:44;20.75;;;18.52;;
19595;SDS011;9945;46.010;8.946;2022-10-15T13:26:16;19.05;;;16.85;;
19595;SDS011;9945;46.010;8.946;2022-10-15T13:28:45;19.15;;;17.25;;
19595;SDS011;9945;46.010;8.946;2022-10-15T13:31:24;18.70;;;16.75;;
19595;SDS011;9945;46.010;8.946;2022-10-15T13:33:55;19.73;;;17.17;;
19595;SDS011;9945;46.010;8.946;2022-10-15T13:36:26;17.48;;;15.68;;
19595;SDS011;9945;46.010;8.946;2022-10-15T13:38:58;29.25;;;18.58;;
19595;SDS011;9945;46.010;8.946;2022-10-15T13:41:27;18.63;;;15.68;;
19595;SDS011;9945;46.010;8.946;2022-10-15T13:43:56;17.83;;;15.98;;
19595;SDS011;9945;46.010;8.946;2022-10-15T13:46:29;16.60;;;14.88;;
19595;SDS011;9945;46.010;8.946;2022-10-15T13:48:58;18.90;;;17.05;;
19595;SDS011;9945;46.010;8.946;2022-10-15T13:51:34;17.20;;;15.02;;
19595;SDS011;9945;46.010;8.946;2022-10-15T13:54:07;15.10;;;13.68;;
19595;SDS011;9945;46.010;8.946;2022-10-15T13:56:36;15.77;;;14.27;;
19595;SDS011;9945;46.010;8.946;2022-10-15T13:59:11;18.42;;;15.88;;
19595;SDS011;9945;46.010;8.946;2022-10-15T14:01:45;21.25;;;15.73;;
19595;SDS011;9945;46.010;8.946;2022-10-15T14:04:15;20.02;;;17.15;;
19595;SDS011;9945;46.010;8.946;2022-10-15T14:06:51;19.45;;;17.65;;
19595;SDS011;9945;46.010;8.946;2022-10-15T14:09:21;24.98;;;16.70;;
19595;SDS011;9945;46.010;8.946;2022-10-15T14:11:51;21.75;;;15.75;;
19595;SDS011;9945;46.010;8.946;2022-10-15T14:14:32;18.20;;;15.20;;
19595;SDS011;9945;46.010;8.946;2022-10-15T14:17:03;15.10;;;13.60;;
19595;SDS011;9945;46.010;8.946;2022-10-15T14:19:33;15.32;;;13.25;;
19595;SDS011;9945;46.010;8.946;2022-10-15T14:22:02;17.42;;;13.63;;
19595;SDS011;9945;46.010;8.946;2022-10-15T14:24:30;17.33;;;14.23;;
19595;SDS011;9945;46.010;8.946;2022-10-15T14:27:00;20.35;;;15.18;;
19595;SDS011;9945;46.010;8.946;2022-10-15T14:29:36;19.08;;;15.20;;
19595;SDS011;9945;46.010;8.946;2022-10-15T14:32:20;17.05;;;14.63;;
19595;SDS011;9945;46.010;8.946;2022-10-15T14:34:50;15.38;;;13.35;;
19595;SDS011;9945;46.010;8.946;2022-10-15T14:37:27;17.35;;;14.05;;
19595;SDS011;9945;46.010;8.946;2022-10-15T14:40:12;14.48;;;12.80;;
19595;SDS011;9945;46.010;8.946;2022-10-15T14:42:42;16.38;;;14.35;;
19595;SDS011;9945;46.010;8.946;2022-10-15T14:45:11;15.35;;;13.73;;
19595;SDS011;9945;46.010;8.946;2022-10-15T14:47:40;19.42;;;13.05;;
19595;SDS011;9945;46.010;8.946;2022-10-15T14:50:11;13.88;;;12.35;;
19595;SDS011;9945;46.010;8.946;2022-10-15T14:52:40;14.57;;;12.93;;
19595;SDS011;9945;46.010;8.946;2022-10-15T14:55:12;12.55;;;11.30;;
19595;SDS011;9945;46.010;8.946;2022-10-15T14:57:42;15.98;;;10.35;;
19595;SDS011;9945;46.010;8.946;2022-10-15T15:00:13;12.35;;;11.07;;
19595;SDS011;9945;46.010;8.946;2022-10-15T15:02:46;13.00;;;11.07;;
19595;SDS011;9945;46.010;8.946;2022-10-15T15:05:18;16.33;;;11.02;;
19595;SDS011;9945;46.010;8.946;2022-10-15T15:07:47;14.52;;;12.32;;
19595;SDS011;9945;46.010;8.946;2022-10-15T15:10:15;16.75;;;10.77;;
19595;SDS011;9945;46.010;8.946;2022-10-15T15:12:42;20.35;;;12.38;;
19595;SDS011;9945;46.010;8.946;2022-10-15T15:15:13;13.80;;;12.27;;
19595;SDS011;9945;46.010;8.946;2022-10-15T15:17:41;12.90;;;11.32;;
19595;SDS011;9945;46.010;8.946;2022-10-15T15:20:10;13.93;;;11.65;;
19595;SDS011;9945;46.010;8.946;2022-10-15T15:22:37;14.30;;;12.40;;
19595;SDS011;9945;46.010;8.946;2022-10-15T15:25:09;12.65;;;11.43;;
19595;SDS011;9945;46.010;8.946;2022-10-15T15:27:40;13.73;;;12.13;;